sensor_id;sensor_type;location;lat;lon;timestamp;P1;durP1;ratioP1;P2;durP2;ratioP2
46941;SDS011;32676;52.630;4.896;2023-09-19T00:01:29;9.77;;;1.60;;
46941;SDS011;32676;52.630;4.896;2023-09-19T00:03:58;9.85;;;1.08;;
46941;SDS011;32676;52.630;4.896;2023-09-19T00:06:25;6.88;;;1.02;;
46941;SDS011;32676;52.630;4.896;2023-09-19T00:08:56;13.93;;;1.83;;
46941;SDS011;32676;52.630;4.896;2023-09-19T00:11:23;9.98;;;1.85;;
46941;SDS011;32676;52.630;4.896;2023-09-19T00:13:51;13.77;;;1.77;;
46941;SDS011;32676;52.630;4.896;2023-09-19T00:16:17;10.25;;;1.65;;
46941;SDS011;32676;52.630;4.896;2023-09-19T00:18:44;11.32;;;1.67;;
46941;SDS011;32676;52.630;4.896;2023-09-19T00:21:12;6.72;;;1.63;;
46941;SDS011;32676;52.630;4.896;2023-09-19T00:23:40;15.10;;;1.80;;
46941;SDS011;32676;52.630;4.896;2023-09-19T00:26:07;10.63;;;1.65;;
46941;SDS011;32676;52.630;4.896;2023-09-19T00:28:33;10.88;;;2.25;;
46941;SDS011;32676;52.630;4.896;2023-09-19T00:31:00;13.90;;;1.30;;
46941;SDS011;32676;52.630;4.896;2023-09-19T00:33:27;11.95;;;3.28;;
46941;SDS011;32676;52.630;4.896;2023-09-19T00:35:54;9.75;;;1.63;;
46941;SDS011;32676;52.630;4.896;2023-09-19T00:38:23;11.75;;;1.48;;
46941;SDS011;32676;52.630;4.896;2023-09-19T00:40:52;11.93;;;1.70;;
46941;SDS011;32676;52.630;4.896;2023-09-19T00:43:19;9.85;;;1.40;;
46941;SDS011;32676;52.630;4.896;2023-09-19T00:45:46;26.02;;;2.80;;
46941;SDS011;32676;52.630;4.896;2023-09-19T00:48:14;7.85;;;0.95;;
46941;SDS011;32676;52.630;4.896;2023-09-19T00:50:42;9.18;;;1.15;;
46941;SDS011;32676;52.630;4.896;2023-09-19T00:53:09;8.63;;;2.65;;
46941;SDS011;32676;52.630;4.896;2023-09-19T00:55:41;8.80;;;2.05;;
46941;SDS011;32676;52.630;4.896;2023-09-19T00:58:09;8.73;;;1.15;;
46941;SDS011;32676;52.630;4.896;2023-09-19T01:00:36;7.68;;;0.98;;
46941;SDS011;32676;52.630;4.896;2023-09-19T01:03:04;8.98;;;1.42;;
46941;SDS011;32676;52.630;4.896;2023-09-19T01:05:32;6.30;;;1.05;;
46941;SDS011;32676;52.630;4.896;2023-09-19T01:08:01;9.38;;;1.42;;
46941;SDS011;32676;52.630;4.896;2023-09-19T01:10:27;12.25;;;2.38;;
46941;SDS011;32676;52.630;4.896;2023-09-19T01:13:05;12.68;;;2.67;;
46941;SDS011;32676;52.630;4.896;2023-09-19T01:15:40;17.35;;;2.33;;
46941;SDS011;32676;52.630;4.896;2023-09-19T01:18:16;12.93;;;2.08;;
46941;SDS011;32676;52.630;4.896;2023-09-19T01:20:53;8.23;;;1.63;;
46941;SDS011;32676;52.630;4.896;2023-09-19T01:23:30;15.57;;;1.30;;
46941;SDS011;32676;52.630;4.896;2023-09-19T01:26:18;7.40;;;1.40;;
46941;SDS011;32676;52.630;4.896;2023-09-19T01:29:13;10.60;;;1.77;;
46941;SDS011;32676;52.630;4.896;2023-09-19T01:31:59;14.13;;;2.13;;
46941;SDS011;32676;52.630;4.896;2023-09-19T01:34:42;13.80;;;2.70;;
46941;SDS011;32676;52.630;4.896;2023-09-19T01:37:10;11.43;;;2.88;;
46941;SDS011;32676;52.630;4.896;2023-09-19T01:39:36;12.32;;;1.75;;
46941;SDS011;32676;52.630;4.896;2023-09-19T01:42:05;11.88;;;2.13;;
46941;SDS011;32676;52.630;4.896;2023-09-19T01:44:40;14.77;;;1.92;;
46941;SDS011;32676;52.630;4.896;2023-09-19T01:47:19;14.57;;;3.25;;
46941;SDS011;32676;52.630;4.896;2023-09-19T01:49:55;16.80;;;2.35;;
46941;SDS011;32676;52.630;4.896;2023-09-19T01:52:28;11.63;;;1.70;;
46941;SDS011;32676;52.630;4.896;2023-09-19T01:54:59;7.55;;;1.70;;
46941;SDS011;32676;52.630;4.896;2023-09-19T01:57:32;10.05;;;1.58;;
46941;SDS011;32676;52.630;4.896;2023-09-19T02:00:03;10.70;;;1.67;;
46941;SDS011;32676;52.630;4.896;2023-09-19T02:02:34;5.68;;;1.20;;
46941;SDS011;32676;52.630;4.896;2023-09-19T02:05:03;8.55;;;1.38;;
46941;SDS011;32676;52.630;4.896;2023-09-19T02:07:31;11.80;;;2.53;;
46941;SDS011;32676;52.630;4.896;2023-09-19T02:09:58;12.15;;;1.15;;
46941;SDS011;32676;52.630;4.896;2023-09-19T02:12:25;13.70;;;1.65;;
46941;SDS011;32676;52.630;4.896;2023-09-19T02:14:51;5.57;;;1.13;;
46941;SDS011;32676;52.630;4.896;2023-09-19T02:17:18;9.20;;;1.40;;
46941;SDS011;32676;52.630;4.896;2023-09-19T02:19:45;6.45;;;0.93;;
46941;SDS011;32676;52.630;4.896;2023-09-19T02:22:12;7.28;;;1.10;;
46941;SDS011;32676;52.630;4.896;2023-09-19T02:24:39;7.55;;;1.70;;
46941;SDS011;32676;52.630;4.896;2023-09-19T02:27:05;7.00;;;1.98;;
46941;SDS011;32676;52.630;4.896;2023-09-19T02:29:32;8.23;;;1.30;;
46941;SDS011;32676;52.630;4.896;2023-09-19T02:32:00;12.98;;;1.17;;
46941;SDS011;32676;52.630;4.896;2023-09-19T02:34:27;7.90;;;1.23;;
46941;SDS011;32676;52.630;4.896;2023-09-19T02:36:55;15.10;;;1.55;;
46941;SDS011;32676;52.630;4.896;2023-09-19T02:39:21;20.45;;;1.85;;
46941;SDS011;32676;52.630;4.896;2023-09-19T02:41:48;8.20;;;1.77;;
46941;SDS011;32676;52.630;4.896;2023-09-19T02:44:15;15.63;;;2.08;;
46941;SDS011;32676;52.630;4.896;2023-09-19T02:46:41;14.48;;;1.88;;
46941;SDS011;32676;52.630;4.896;2023-09-19T02:49:08;15.80;;;4.20;;
46941;SDS011;32676;52.630;4.896;2023-09-19T02:51:34;9.40;;;1.83;;
46941;SDS011;32676;52.630;4.896;2023-09-19T02:54:02;15.90;;;2.72;;
46941;SDS011;32676;52.630;4.896;2023-09-19T02:56:29;26.63;;;3.03;;
46941;SDS011;32676;52.630;4.896;2023-09-19T02:58:57;23.98;;;2.53;;
46941;SDS011;32676;52.630;4.896;2023-09-19T03:01:25;11.68;;;1.60;;
46941;SDS011;32676;52.630;4.896;2023-09-19T03:03:52;16.67;;;2.20;;
46941;SDS011;32676;52.630;4.896;2023-09-19T03:06:18;15.45;;;1.98;;
46941;SDS011;32676;52.630;4.896;2023-09-19T03:08:45;15.43;;;1.95;;
46941;SDS011;32676;52.630;4.896;2023-09-19T03:11:15;16.50;;;1.95;;
46941;SDS011;32676;52.630;4.896;2023-09-19T03:13:43;12.60;;;2.08;;
46941;SDS011;32676;52.630;4.896;2023-09-19T03:16:11;15.18;;;2.80;;
46941;SDS011;32676;52.630;4.896;2023-09-19T03:18:40;13.32;;;2.38;;
46941;SDS011;32676;52.630;4.896;2023-09-19T03:21:06;16.02;;;1.88;;
46941;SDS011;32676;52.630;4.896;2023-09-19T03:23:33;12.68;;;2.30;;
46941;SDS011;32676;52.630;4.896;2023-09-19T03:25:59;10.73;;;1.55;;
46941;SDS011;32676;52.630;4.896;2023-09-19T03:28:27;12.18;;;2.53;;
46941;SDS011;32676;52.630;4.896;2023-09-19T03:30:58;13.80;;;2.47;;
46941;SDS011;32676;52.630;4.896;2023-09-19T03:33:26;11.68;;;1.77;;
46941;SDS011;32676;52.630;4.896;2023-09-19T03:35:52;15.57;;;3.05;;
46941;SDS011;32676;52.630;4.896;2023-09-19T03:38:19;10.98;;;2.45;;
46941;SDS011;32676;52.630;4.896;2023-09-19T03:40:46;16.58;;;1.67;;
46941;SDS011;32676;52.630;4.896;2023-09-19T03:43:13;17.55;;;1.92;;
46941;SDS011;32676;52.630;4.896;2023-09-19T03:45:41;14.82;;;1.20;;
46941;SDS011;32676;52.630;4.896;2023-09-19T03:48:08;13.32;;;2.63;;
46941;SDS011;32676;52.630;4.896;2023-09-19T03:50:34;14.10;;;2.85;;
46941;SDS011;32676;52.630;4.896;2023-09-19T03:53:01;16.58;;;2.28;;
46941;SDS011;32676;52.630;4.896;2023-09-19T03:55:28;18.88;;;3.83;;
46941;SDS011;32676;52.630;4.896;2023-09-19T03:57:55;15.15;;;1.75;;
46941;SDS011;32676;52.630;4.896;2023-09-19T04:00:22;14.73;;;1.25;;
46941;SDS011;32676;52.630;4.896;2023-09-19T04:02:52;13.40;;;2.03;;
46941;SDS011;32676;52.630;4.896;2023-09-19T04:05:21;11.18;;;1.55;;
46941;SDS011;32676;52.630;4.896;2023-09-19T04:07:47;16.42;;;2.88;;
46941;SDS011;32676;52.630;4.896;2023-09-19T04:10:15;17.65;;;3.58;;
46941;SDS011;32676;52.630;4.896;2023-09-19T04:12:49;12.23;;;1.55;;
46941;SDS011;32676;52.630;4.896;2023-09-19T04:15:17;8.38;;;1.60;;
46941;SDS011;32676;52.630;4.896;2023-09-19T04:17:43;10.25;;;2.78;;
46941;SDS011;32676;52.630;4.896;2023-09-19T04:20:11;12.18;;;2.08;;
46941;SDS011;32676;52.630;4.896;2023-09-19T04:22:37;17.75;;;2.53;;
46941;SDS011;32676;52.630;4.896;2023-09-19T04:25:04;8.18;;;2.05;;
46941;SDS011;32676;52.630;4.896;2023-09-19T04:27:33;10.27;;;1.52;;
46941;SDS011;32676;52.630;4.896;2023-09-19T04:29:59;10.70;;;1.70;;
46941;SDS011;32676;52.630;4.896;2023-09-19T04:32:28;9.25;;;1.55;;
46941;SDS011;32676;52.630;4.896;2023-09-19T04:34:57;10.10;;;1.67;;
46941;SDS011;32676;52.630;4.896;2023-09-19T04:37:28;13.13;;;1.30;;
46941;SDS011;32676;52.630;4.896;2023-09-19T04:39:55;8.15;;;1.98;;
46941;SDS011;32676;52.630;4.896;2023-09-19T04:42:21;20.95;;;2.53;;
46941;SDS011;32676;52.630;4.896;2023-09-19T04:44:49;13.07;;;2.33;;
46941;SDS011;32676;52.630;4.896;2023-09-19T04:47:18;12.43;;;1.88;;
46941;SDS011;32676;52.630;4.896;2023-09-19T04:49:46;9.85;;;1.75;;
46941;SDS011;32676;52.630;4.896;2023-09-19T04:52:12;19.15;;;1.98;;
46941;SDS011;32676;52.630;4.896;2023-09-19T04:54:41;11.07;;;1.65;;
46941;SDS011;32676;52.630;4.896;2023-09-19T04:57:07;7.68;;;1.58;;
46941;SDS011;32676;52.630;4.896;2023-09-19T04:59:34;10.88;;;1.88;;
46941;SDS011;32676;52.630;4.896;2023-09-19T05:02:01;12.80;;;1.65;;
46941;SDS011;32676;52.630;4.896;2023-09-19T05:04:27;9.82;;;1.45;;
46941;SDS011;32676;52.630;4.896;2023-09-19T05:06:54;8.30;;;1.30;;
46941;SDS011;32676;52.630;4.896;2023-09-19T05:09:20;16.25;;;1.90;;
46941;SDS011;32676;52.630;4.896;2023-09-19T05:11:48;9.65;;;1.67;;
46941;SDS011;32676;52.630;4.896;2023-09-19T05:14:16;14.02;;;1.98;;
46941;SDS011;32676;52.630;4.896;2023-09-19T05:16:42;10.35;;;1.40;;
46941;SDS011;32676;52.630;4.896;2023-09-19T05:19:09;17.13;;;2.10;;
46941;SDS011;32676;52.630;4.896;2023-09-19T05:21:36;8.05;;;1.55;;
46941;SDS011;32676;52.630;4.896;2023-09-19T05:24:04;10.75;;;1.75;;
46941;SDS011;32676;52.630;4.896;2023-09-19T05:26:31;14.05;;;2.78;;
46941;SDS011;32676;52.630;4.896;2023-09-19T05:28:59;14.15;;;1.98;;
46941;SDS011;32676;52.630;4.896;2023-09-19T05:31:28;10.25;;;2.00;;
46941;SDS011;32676;52.630;4.896;2023-09-19T05:34:05;10.68;;;2.13;;
46941;SDS011;32676;52.630;4.896;2023-09-19T05:36:32;14.40;;;2.50;;
46941;SDS011;32676;52.630;4.896;2023-09-19T05:38:58;12.55;;;1.77;;
46941;SDS011;32676;52.630;4.896;2023-09-19T05:41:25;13.63;;;2.38;;
46941;SDS011;32676;52.630;4.896;2023-09-19T05:43:52;8.77;;;1.83;;
46941;SDS011;32676;52.630;4.896;2023-09-19T05:46:20;8.75;;;1.92;;
46941;SDS011;32676;52.630;4.896;2023-09-19T05:48:47;6.20;;;1.02;;
46941;SDS011;32676;52.630;4.896;2023-09-19T05:51:14;9.73;;;1.92;;
46941;SDS011;32676;52.630;4.896;2023-09-19T05:53:42;11.60;;;1.02;;
46941;SDS011;32676;52.630;4.896;2023-09-19T05:56:09;10.07;;;2.20;;
46941;SDS011;32676;52.630;4.896;2023-09-19T05:58:36;13.90;;;2.13;;
46941;SDS011;32676;52.630;4.896;2023-09-19T06:01:03;11.90;;;1.17;;
46941;SDS011;32676;52.630;4.896;2023-09-19T06:03:33;13.98;;;3.15;;
46941;SDS011;32676;52.630;4.896;2023-09-19T06:06:00;14.85;;;1.90;;
46941;SDS011;32676;52.630;4.896;2023-09-19T06:08:27;9.45;;;2.80;;
46941;SDS011;32676;52.630;4.896;2023-09-19T06:10:53;12.07;;;2.42;;
46941;SDS011;32676;52.630;4.896;2023-09-19T06:13:20;16.42;;;5.03;;
46941;SDS011;32676;52.630;4.896;2023-09-19T06:15:46;14.45;;;2.05;;
46941;SDS011;32676;52.630;4.896;2023-09-19T06:18:15;11.57;;;2.05;;
46941;SDS011;32676;52.630;4.896;2023-09-19T06:20:46;20.67;;;2.35;;
46941;SDS011;32676;52.630;4.896;2023-09-19T06:23:12;20.05;;;2.35;;
46941;SDS011;32676;52.630;4.896;2023-09-19T06:25:39;19.65;;;3.00;;
46941;SDS011;32676;52.630;4.896;2023-09-19T06:28:06;15.18;;;2.50;;
46941;SDS011;32676;52.630;4.896;2023-09-19T06:30:33;13.32;;;1.67;;
46941;SDS011;32676;52.630;4.896;2023-09-19T06:33:00;13.07;;;2.28;;
46941;SDS011;32676;52.630;4.896;2023-09-19T06:35:29;10.05;;;2.25;;
46941;SDS011;32676;52.630;4.896;2023-09-19T06:38:01;12.20;;;1.95;;
46941;SDS011;32676;52.630;4.896;2023-09-19T06:40:29;13.65;;;1.92;;
46941;SDS011;32676;52.630;4.896;2023-09-19T06:42:56;12.00;;;1.92;;
46941;SDS011;32676;52.630;4.896;2023-09-19T06:45:23;10.43;;;2.20;;
46941;SDS011;32676;52.630;4.896;2023-09-19T06:47:51;10.45;;;1.67;;
46941;SDS011;32676;52.630;4.896;2023-09-19T06:50:19;13.20;;;1.65;;
46941;SDS011;32676;52.630;4.896;2023-09-19T06:52:47;20.48;;;3.90;;
46941;SDS011;32676;52.630;4.896;2023-09-19T06:55:16;21.67;;;3.40;;
46941;SDS011;32676;52.630;4.896;2023-09-19T06:57:44;19.33;;;2.55;;
46941;SDS011;32676;52.630;4.896;2023-09-19T07:00:11;13.07;;;2.33;;
46941;SDS011;32676;52.630;4.896;2023-09-19T07:02:43;18.92;;;2.90;;
46941;SDS011;32676;52.630;4.896;2023-09-19T07:05:10;12.77;;;1.88;;
46941;SDS011;32676;52.630;4.896;2023-09-19T07:07:36;13.63;;;2.58;;
46941;SDS011;32676;52.630;4.896;2023-09-19T07:10:03;16.83;;;2.47;;
46941;SDS011;32676;52.630;4.896;2023-09-19T07:12:31;11.48;;;1.52;;
46941;SDS011;32676;52.630;4.896;2023-09-19T07:14:58;12.30;;;2.33;;
46941;SDS011;32676;52.630;4.896;2023-09-19T07:17:25;14.50;;;2.03;;
46941;SDS011;32676;52.630;4.896;2023-09-19T07:19:52;14.70;;;2.00;;
46941;SDS011;32676;52.630;4.896;2023-09-19T07:22:19;10.52;;;2.05;;
46941;SDS011;32676;52.630;4.896;2023-09-19T07:24:45;12.68;;;1.85;;
46941;SDS011;32676;52.630;4.896;2023-09-19T07:27:13;12.65;;;3.00;;
46941;SDS011;32676;52.630;4.896;2023-09-19T07:29:41;16.25;;;2.88;;
46941;SDS011;32676;52.630;4.896;2023-09-19T07:32:08;15.25;;;2.58;;
46941;SDS011;32676;52.630;4.896;2023-09-19T07:34:35;21.38;;;2.72;;
46941;SDS011;32676;52.630;4.896;2023-09-19T07:37:04;22.25;;;2.90;;
46941;SDS011;32676;52.630;4.896;2023-09-19T07:39:31;12.43;;;2.15;;
46941;SDS011;32676;52.630;4.896;2023-09-19T07:41:58;16.02;;;2.50;;
46941;SDS011;32676;52.630;4.896;2023-09-19T07:44:25;12.68;;;2.55;;
46941;SDS011;32676;52.630;4.896;2023-09-19T07:46:53;14.95;;;2.45;;
46941;SDS011;32676;52.630;4.896;2023-09-19T07:49:19;7.60;;;2.03;;
46941;SDS011;32676;52.630;4.896;2023-09-19T07:51:46;13.20;;;2.03;;
46941;SDS011;32676;52.630;4.896;2023-09-19T07:54:12;13.23;;;2.45;;
46941;SDS011;32676;52.630;4.896;2023-09-19T07:56:39;12.00;;;1.90;;
46941;SDS011;32676;52.630;4.896;2023-09-19T07:59:06;15.52;;;2.08;;
46941;SDS011;32676;52.630;4.896;2023-09-19T08:01:33;22.88;;;2.25;;
46941;SDS011;32676;52.630;4.896;2023-09-19T08:04:02;12.70;;;2.88;;
46941;SDS011;32676;52.630;4.896;2023-09-19T08:06:28;21.83;;;2.63;;
46941;SDS011;32676;52.630;4.896;2023-09-19T08:08:55;15.65;;;2.70;;
46941;SDS011;32676;52.630;4.896;2023-09-19T08:11:22;19.30;;;3.42;;
46941;SDS011;32676;52.630;4.896;2023-09-19T08:13:49;10.88;;;1.95;;
46941;SDS011;32676;52.630;4.896;2023-09-19T08:16:16;22.90;;;4.35;;
46941;SDS011;32676;52.630;4.896;2023-09-19T08:18:43;14.05;;;2.80;;
46941;SDS011;32676;52.630;4.896;2023-09-19T08:21:14;15.68;;;3.20;;
46941;SDS011;32676;52.630;4.896;2023-09-19T08:23:41;28.17;;;3.55;;
46941;SDS011;32676;52.630;4.896;2023-09-19T08:26:08;13.95;;;2.47;;
46941;SDS011;32676;52.630;4.896;2023-09-19T08:28:34;14.98;;;3.40;;
46941;SDS011;32676;52.630;4.896;2023-09-19T08:31:02;20.95;;;5.22;;
46941;SDS011;32676;52.630;4.896;2023-09-19T08:33:31;19.05;;;3.22;;
46941;SDS011;32676;52.630;4.896;2023-09-19T08:35:58;15.68;;;2.75;;
46941;SDS011;32676;52.630;4.896;2023-09-19T08:38:25;19.55;;;2.55;;
46941;SDS011;32676;52.630;4.896;2023-09-19T08:40:54;15.23;;;2.88;;
46941;SDS011;32676;52.630;4.896;2023-09-19T08:43:23;16.08;;;2.53;;
46941;SDS011;32676;52.630;4.896;2023-09-19T08:45:50;18.60;;;3.45;;
46941;SDS011;32676;52.630;4.896;2023-09-19T08:48:21;21.70;;;3.92;;
46941;SDS011;32676;52.630;4.896;2023-09-19T08:50:51;21.10;;;3.33;;
46941;SDS011;32676;52.630;4.896;2023-09-19T08:53:26;12.52;;;3.20;;
46941;SDS011;32676;52.630;4.896;2023-09-19T08:55:57;24.15;;;3.05;;
46941;SDS011;32676;52.630;4.896;2023-09-19T08:58:40;14.07;;;3.35;;
46941;SDS011;32676;52.630;4.896;2023-09-19T09:01:12;17.08;;;2.53;;
46941;SDS011;32676;52.630;4.896;2023-09-19T09:03:40;17.35;;;2.97;;
46941;SDS011;32676;52.630;4.896;2023-09-19T09:06:11;14.05;;;2.65;;
46941;SDS011;32676;52.630;4.896;2023-09-19T09:08:43;13.15;;;2.40;;
46941;SDS011;32676;52.630;4.896;2023-09-19T09:11:10;14.77;;;2.92;;
46941;SDS011;32676;52.630;4.896;2023-09-19T09:13:37;16.02;;;3.13;;
46941;SDS011;32676;52.630;4.896;2023-09-19T09:16:04;10.63;;;2.05;;
46941;SDS011;32676;52.630;4.896;2023-09-19T09:18:30;11.90;;;2.17;;
46941;SDS011;32676;52.630;4.896;2023-09-19T09:20:57;16.80;;;2.10;;
46941;SDS011;32676;52.630;4.896;2023-09-19T09:23:23;16.10;;;2.58;;
46941;SDS011;32676;52.630;4.896;2023-09-19T09:25:52;15.55;;;2.38;;
46941;SDS011;32676;52.630;4.896;2023-09-19T09:28:21;15.85;;;3.10;;
46941;SDS011;32676;52.630;4.896;2023-09-19T09:30:48;19.30;;;2.20;;
46941;SDS011;32676;52.630;4.896;2023-09-19T09:33:17;14.70;;;3.85;;
46941;SDS011;32676;52.630;4.896;2023-09-19T09:35:47;22.77;;;4.03;;
46941;SDS011;32676;52.630;4.896;2023-09-19T09:38:16;21.00;;;3.40;;
46941;SDS011;32676;52.630;4.896;2023-09-19T09:40:47;16.58;;;3.08;;
46941;SDS011;32676;52.630;4.896;2023-09-19T09:43:28;16.97;;;2.40;;
46941;SDS011;32676;52.630;4.896;2023-09-19T09:46:06;24.13;;;3.38;;
46941;SDS011;32676;52.630;4.896;2023-09-19T09:48:56;11.77;;;1.98;;
46941;SDS011;32676;52.630;4.896;2023-09-19T09:51:37;13.48;;;2.35;;
46941;SDS011;32676;52.630;4.896;2023-09-19T09:54:11;13.32;;;2.38;;
46941;SDS011;32676;52.630;4.896;2023-09-19T09:56:51;21.65;;;3.75;;
46941;SDS011;32676;52.630;4.896;2023-09-19T09:59:20;10.05;;;2.53;;
46941;SDS011;32676;52.630;4.896;2023-09-19T10:01:49;19.23;;;3.00;;
46941;SDS011;32676;52.630;4.896;2023-09-19T10:04:26;17.23;;;2.95;;
46941;SDS011;32676;52.630;4.896;2023-09-19T10:06:56;17.23;;;2.42;;
46941;SDS011;32676;52.630;4.896;2023-09-19T10:09:23;14.80;;;2.65;;
46941;SDS011;32676;52.630;4.896;2023-09-19T10:12:03;16.63;;;1.83;;
46941;SDS011;32676;52.630;4.896;2023-09-19T10:14:35;13.80;;;2.70;;
46941;SDS011;32676;52.630;4.896;2023-09-19T10:17:04;11.57;;;2.30;;
46941;SDS011;32676;52.630;4.896;2023-09-19T10:19:40;16.40;;;2.63;;
46941;SDS011;32676;52.630;4.896;2023-09-19T10:22:11;18.35;;;3.50;;
46941;SDS011;32676;52.630;4.896;2023-09-19T10:24:41;11.82;;;2.30;;
46941;SDS011;32676;52.630;4.896;2023-09-19T10:27:09;16.48;;;3.13;;
46941;SDS011;32676;52.630;4.896;2023-09-19T10:29:37;21.83;;;3.33;;
46941;SDS011;32676;52.630;4.896;2023-09-19T10:32:05;13.52;;;3.08;;
46941;SDS011;32676;52.630;4.896;2023-09-19T10:34:34;15.10;;;2.20;;
46941;SDS011;32676;52.630;4.896;2023-09-19T10:37:02;16.05;;;2.58;;
46941;SDS011;32676;52.630;4.896;2023-09-19T10:39:31;18.73;;;2.20;;
46941;SDS011;32676;52.630;4.896;2023-09-19T10:42:01;20.30;;;3.38;;
46941;SDS011;32676;52.630;4.896;2023-09-19T10:44:31;18.00;;;2.70;;
46941;SDS011;32676;52.630;4.896;2023-09-19T10:47:00;18.38;;;2.78;;
46941;SDS011;32676;52.630;4.896;2023-09-19T10:49:28;20.17;;;2.90;;
46941;SDS011;32676;52.630;4.896;2023-09-19T10:51:57;16.90;;;4.28;;
46941;SDS011;32676;52.630;4.896;2023-09-19T10:54:27;10.50;;;2.13;;
46941;SDS011;32676;52.630;4.896;2023-09-19T10:56:59;26.20;;;2.70;;
46941;SDS011;32676;52.630;4.896;2023-09-19T10:59:26;14.68;;;2.28;;
46941;SDS011;32676;52.630;4.896;2023-09-19T11:02:15;16.15;;;3.90;;
46941;SDS011;32676;52.630;4.896;2023-09-19T11:04:43;16.75;;;2.03;;
46941;SDS011;32676;52.630;4.896;2023-09-19T11:07:13;19.80;;;2.53;;
46941;SDS011;32676;52.630;4.896;2023-09-19T11:09:44;12.35;;;1.90;;
46941;SDS011;32676;52.630;4.896;2023-09-19T11:12:11;18.23;;;2.45;;
46941;SDS011;32676;52.630;4.896;2023-09-19T11:14:39;12.00;;;2.38;;
46941;SDS011;32676;52.630;4.896;2023-09-19T11:20:20;15.45;;;2.45;;
46941;SDS011;32676;52.630;4.896;2023-09-19T11:23:22;9.00;;;2.00;;
46941;SDS011;32676;52.630;4.896;2023-09-19T11:25:51;13.93;;;1.98;;
46941;SDS011;32676;52.630;4.896;2023-09-19T11:28:32;11.10;;;2.53;;
46941;SDS011;32676;52.630;4.896;2023-09-19T11:37:00;11.38;;;1.90;;
46941;SDS011;32676;52.630;4.896;2023-09-19T11:39:29;15.32;;;3.65;;
46941;SDS011;32676;52.630;4.896;2023-09-19T11:41:58;9.68;;;1.70;;
46941;SDS011;32676;52.630;4.896;2023-09-19T11:44:31;10.90;;;1.70;;
46941;SDS011;32676;52.630;4.896;2023-09-19T11:47:01;14.98;;;1.90;;
46941;SDS011;32676;52.630;4.896;2023-09-19T11:49:29;7.88;;;1.58;;
46941;SDS011;32676;52.630;4.896;2023-09-19T11:51:58;13.60;;;1.40;;
46941;SDS011;32676;52.630;4.896;2023-09-19T11:54:31;10.85;;;1.60;;
46941;SDS011;32676;52.630;4.896;2023-09-19T11:56:58;14.35;;;1.90;;
46941;SDS011;32676;52.630;4.896;2023-09-19T11:59:26;9.10;;;1.35;;
46941;SDS011;32676;52.630;4.896;2023-09-19T12:01:55;10.88;;;1.45;;
46941;SDS011;32676;52.630;4.896;2023-09-19T12:04:36;8.07;;;1.35;;
46941;SDS011;32676;52.630;4.896;2023-09-19T12:07:04;13.15;;;3.17;;
46941;SDS011;32676;52.630;4.896;2023-09-19T12:09:33;7.18;;;1.33;;
46941;SDS011;32676;52.630;4.896;2023-09-19T12:11:59;10.57;;;1.77;;
46941;SDS011;32676;52.630;4.896;2023-09-19T12:14:26;13.60;;;2.10;;
46941;SDS011;32676;52.630;4.896;2023-09-19T12:16:53;17.50;;;2.00;;
46941;SDS011;32676;52.630;4.896;2023-09-19T12:19:21;12.50;;;2.20;;
46941;SDS011;32676;52.630;4.896;2023-09-19T12:21:55;12.13;;;2.20;;
46941;SDS011;32676;52.630;4.896;2023-09-19T12:24:24;9.02;;;1.67;;
46941;SDS011;32676;52.630;4.896;2023-09-19T12:26:59;9.88;;;1.48;;
46941;SDS011;32676;52.630;4.896;2023-09-19T12:29:30;12.43;;;2.38;;
46941;SDS011;32676;52.630;4.896;2023-09-19T12:31:58;12.23;;;2.78;;
46941;SDS011;32676;52.630;4.896;2023-09-19T12:34:29;12.38;;;1.48;;
46941;SDS011;32676;52.630;4.896;2023-09-19T12:37:03;17.17;;;1.95;;
46941;SDS011;32676;52.630;4.896;2023-09-19T12:39:36;9.00;;;1.75;;
46941;SDS011;32676;52.630;4.896;2023-09-19T12:42:04;15.70;;;1.85;;
46941;SDS011;32676;52.630;4.896;2023-09-19T12:44:34;20.50;;;2.88;;
46941;SDS011;32676;52.630;4.896;2023-09-19T12:47:07;16.35;;;2.72;;
46941;SDS011;32676;52.630;4.896;2023-09-19T12:49:35;19.50;;;3.50;;
46941;SDS011;32676;52.630;4.896;2023-09-19T12:52:02;19.60;;;3.83;;
46941;SDS011;32676;52.630;4.896;2023-09-19T12:54:37;11.77;;;3.10;;
46941;SDS011;32676;52.630;4.896;2023-09-19T12:57:06;23.13;;;2.55;;
46941;SDS011;32676;52.630;4.896;2023-09-19T12:59:32;15.55;;;3.38;;
46941;SDS011;32676;52.630;4.896;2023-09-19T13:02:04;16.80;;;3.42;;
46941;SDS011;32676;52.630;4.896;2023-09-19T13:04:32;20.80;;;3.83;;
46941;SDS011;32676;52.630;4.896;2023-09-19T13:06:59;20.92;;;2.65;;
46941;SDS011;32676;52.630;4.896;2023-09-19T13:09:27;13.38;;;2.75;;
46941;SDS011;32676;52.630;4.896;2023-09-19T13:11:59;15.98;;;2.05;;
46941;SDS011;32676;52.630;4.896;2023-09-19T13:14:28;19.75;;;2.78;;
46941;SDS011;32676;52.630;4.896;2023-09-19T13:16:59;15.65;;;3.08;;
46941;SDS011;32676;52.630;4.896;2023-09-19T13:19:38;18.23;;;4.35;;
46941;SDS011;32676;52.630;4.896;2023-09-19T13:25:08;22.80;;;3.55;;
46941;SDS011;32676;52.630;4.896;2023-09-19T13:27:39;19.75;;;3.85;;
46941;SDS011;32676;52.630;4.896;2023-09-19T13:30:07;18.58;;;3.97;;
46941;SDS011;32676;52.630;4.896;2023-09-19T13:32:34;14.98;;;3.13;;
46941;SDS011;32676;52.630;4.896;2023-09-19T13:35:01;37.08;;;5.25;;
46941;SDS011;32676;52.630;4.896;2023-09-19T13:37:27;17.50;;;3.70;;
46941;SDS011;32676;52.630;4.896;2023-09-19T13:39:54;28.60;;;3.53;;
46941;SDS011;32676;52.630;4.896;2023-09-19T13:42:22;26.33;;;4.22;;
46941;SDS011;32676;52.630;4.896;2023-09-19T13:44:50;16.58;;;3.05;;
46941;SDS011;32676;52.630;4.896;2023-09-19T13:47:18;19.23;;;2.90;;
46941;SDS011;32676;52.630;4.896;2023-09-19T13:49:49;26.30;;;3.33;;
46941;SDS011;32676;52.630;4.896;2023-09-19T13:52:17;28.40;;;3.42;;
46941;SDS011;32676;52.630;4.896;2023-09-19T13:54:44;22.92;;;4.68;;
46941;SDS011;32676;52.630;4.896;2023-09-19T13:57:10;15.07;;;2.70;;
46941;SDS011;32676;52.630;4.896;2023-09-19T13:59:37;17.40;;;3.55;;
46941;SDS011;32676;52.630;4.896;2023-09-19T14:02:03;26.67;;;4.03;;
46941;SDS011;32676;52.630;4.896;2023-09-19T14:04:33;20.65;;;3.88;;
46941;SDS011;32676;52.630;4.896;2023-09-19T14:07:00;32.15;;;4.20;;
46941;SDS011;32676;52.630;4.896;2023-09-19T14:09:27;22.67;;;3.78;;
46941;SDS011;32676;52.630;4.896;2023-09-19T14:11:53;21.92;;;3.95;;
46941;SDS011;32676;52.630;4.896;2023-09-19T14:14:19;19.35;;;3.80;;
46941;SDS011;32676;52.630;4.896;2023-09-19T14:16:46;32.58;;;3.90;;
46941;SDS011;32676;52.630;4.896;2023-09-19T14:19:13;28.05;;;5.15;;
46941;SDS011;32676;52.630;4.896;2023-09-19T14:21:42;27.40;;;5.03;;
46941;SDS011;32676;52.630;4.896;2023-09-19T14:24:09;34.42;;;7.18;;
46941;SDS011;32676;52.630;4.896;2023-09-19T14:26:36;31.58;;;6.28;;
46941;SDS011;32676;52.630;4.896;2023-09-19T14:29:03;30.10;;;7.53;;
46941;SDS011;32676;52.630;4.896;2023-09-19T14:31:32;22.95;;;5.38;;
46941;SDS011;32676;52.630;4.896;2023-09-19T14:33:59;32.60;;;6.18;;
46941;SDS011;32676;52.630;4.896;2023-09-19T14:36:25;26.38;;;5.95;;
46941;SDS011;32676;52.630;4.896;2023-09-19T14:38:55;29.13;;;6.00;;
46941;SDS011;32676;52.630;4.896;2023-09-19T14:41:22;31.58;;;5.20;;
46941;SDS011;32676;52.630;4.896;2023-09-19T14:43:50;30.00;;;5.60;;
46941;SDS011;32676;52.630;4.896;2023-09-19T14:46:17;31.35;;;7.60;;
46941;SDS011;32676;52.630;4.896;2023-09-19T14:48:44;28.50;;;5.00;;
46941;SDS011;32676;52.630;4.896;2023-09-19T14:51:12;28.48;;;4.88;;
46941;SDS011;32676;52.630;4.896;2023-09-19T14:53:39;28.15;;;5.00;;
46941;SDS011;32676;52.630;4.896;2023-09-19T14:56:08;28.90;;;4.47;;
46941;SDS011;32676;52.630;4.896;2023-09-19T14:58:35;35.42;;;6.32;;